Time;durP1;ratioP1;P1;durP2;ratioP2;P2;SDS_P1;SDS_P2;PMS_P1;PMS_P2;Temp;Humidity;BMP_temperature;BMP_pressure;BME280_temperature;BME280_humidity;BME280_pressure;Samples;Min_cycle;Max_cycle;Signal;HPM_P1;HPM_P2
2022/02/09 00:04:58;;;;;;;14.25;5.55;;;;;;;1.25;70.57;98957.01;1748603;80;20977;-38
2022/02/09 00:07:21;;;;;;;14.68;5.60;;;;;;;1.29;70.58;98954.50;1771602;80;21140;-38
2022/02/09 00:09:44;;;;;;;15.18;5.85;;;;;;;1.35;70.51;98961.28;1772504;80;21053;-38
2022/02/09 00:12:16;;;;;;;13.22;5.10;;;;;;;1.41;70.44;98960.58;1773821;80;21479;-38
2022/02/09 00:17:32;;;;;;;12.75;6.03;;;;;;;1.45;70.63;98962.89;1779065;80;21260;-38
2022/02/09 00:41:17;;;;;;;22.10;8.03;;;;;;;1.28;72.94;98936.35;1764044;81;21499;-38
2022/02/09 00:43:48;;;;;;;16.65;7.17;;;;;;;1.24;73.45;98932.73;1759939;81;21008;-38
2022/02/09 01:56:24;;;;;;;17.75;8.05;;;;;;;1.05;77.29;98892.68;1745638;82;21004;-37
2022/02/09 01:58:50;;;;;;;15.20;7.65;;;;;;;1.03;77.47;98888.19;1745788;82;21033;-38
2022/02/09 02:01:17;;;;;;;16.73;7.92;;;;;;;1.06;77.62;98885.70;1745730;82;21033;-38
2022/02/09 02:03:46;;;;;;;14.45;7.67;;;;;;;1.08;77.64;98890.17;1746058;82;21554;-38
2022/02/09 02:06:14;;;;;;;17.98;8.75;;;;;;;1.12;77.63;98883.66;1746217;82;21137;-38
2022/02/09 02:08:44;;;;;;;17.30;8.03;;;;;;;1.12;77.71;98883.66;1745960;82;21075;-38
2022/02/09 02:11:20;;;;;;;14.63;8.00;;;;;;;1.11;77.80;98892.25;1746285;82;21007;-38
2022/02/09 02:18:37;;;;;;;15.63;7.85;;;;;;;1.12;78.11;98885.00;1742531;81;21143;-38
2022/02/09 02:21:24;;;;;;;18.77;8.50;;;;;;;1.02;78.39;98883.39;1742312;82;21021;-38
2022/02/09 02:26:27;;;;;;;15.40;7.10;;;;;;;1.08;78.49;98888.05;1742502;82;21495;-38
2022/02/09 02:34:33;;;;;;;17.73;8.45;;;;;;;1.08;78.47;98886.17;1742696;82;20941;-39
2022/02/09 02:42:44;;;;;;;14.70;7.90;;;;;;;1.18;78.70;98895.23;1743068;82;21010;-38
2022/02/09 02:47:29;;;;;;;11.68;7.00;;;;;;;1.19;78.80;98898.70;1742803;82;21026;-38
2022/02/09 03:14:18;;;;;;;10.13;5.58;;;;;;;1.44;79.17;98911.91;1773731;80;20937;-38
2022/02/09 03:16:44;;;;;;;8.43;5.67;;;;;;;1.47;79.15;98913.40;1774120;80;21444;-38
2022/02/09 03:19:42;;;;;;;8.85;5.53;;;;;;;1.51;79.00;98914.89;1773612;80;21512;-39
2022/02/09 03:44:02;;;;;;;8.05;5.20;;;;;;;1.76;78.45;98944.91;1774093;80;20929;-38
2022/02/09 03:46:24;;;;;;;9.18;5.10;;;;;;;1.80;78.40;98947.19;1774088;80;21016;-38
2022/02/09 03:49:00;;;;;;;7.35;4.25;;;;;;;1.87;78.30;98949.41;1774017;80;20992;-39
2022/02/09 03:51:34;;;;;;;7.20;4.50;;;;;;;1.91;78.15;98944.46;1773637;80;21141;-39
2022/02/09 03:58:53;;;;;;;7.95;5.50;;;;;;;2.00;77.86;98940.45;1774100;80;20988;-38
2022/02/09 04:01:22;;;;;;;7.62;5.28;;;;;;;2.00;77.87;98934.56;1774321;80;21076;-38
2022/02/09 04:03:48;;;;;;;9.25;5.20;;;;;;;2.03;77.82;98940.61;1773984;80;22001;-38
2022/02/09 04:06:15;;;;;;;6.78;4.90;;;;;;;2.05;77.76;98935.75;1773970;80;21025;-39
2022/02/09 04:08:52;;;;;;;6.00;4.55;;;;;;;2.08;77.74;98939.70;1773879;80;21024;-38
2022/02/09 04:11:20;;;;;;;;;;;;;;;2.11;77.75;98940.40;1775242;80;20914;-38
2022/02/09 04:13:51;;;;;;;7.50;4.62;;;;;;;2.14;77.71;98939.76;1772728;80;20211;-39
2022/02/09 04:16:34;;;;;;;7.70;4.72;;;;;;;2.11;77.81;98945.20;1772390;80;21140;-39
2022/02/09 04:19:08;;;;;;;6.92;4.28;;;;;;;2.15;77.75;98935.44;1776057;80;21017;-39
2022/02/09 04:45:43;;;;;;;6.05;4.80;;;;;;;2.41;77.44;98970.78;1751017;82;21076;-38
2022/02/09 04:50:54;;;;;;;8.55;4.95;;;;;;;2.45;77.36;98975.19;1780632;80;21045;-38
2022/02/09 04:55:59;;;;;;;10.15;4.72;;;;;;;2.45;77.35;98989.11;1780698;80;21806;-38
2022/02/09 04:58:49;;;;;;;7.53;5.25;;;;;;;2.45;77.47;98981.88;1779294;80;21012;-39
2022/02/09 05:25:50;;;;;;;6.10;4.37;;;;;;;2.59;77.35;99023.97;1736896;82;21507;-39
2022/02/09 05:27:48;;;;;;;7.70;4.75;;;;;;;2.62;77.22;99023.33;1722470;82;21535;-39
2022/02/09 05:30:08;;;;;;;8.10;4.72;;;;;;;2.63;77.16;99026.25;1771995;80;21690;-39
2022/02/09 05:32:36;;;;;;;6.65;4.35;;;;;;;2.64;77.20;99037.75;1773690;80;21702;-39
2022/02/09 05:35:03;;;;;;;6.12;4.60;;;;;;;2.69;77.10;99041.61;1773941;80;21166;-38
2022/02/09 05:37:30;;;;;;;8.15;5.05;;;;;;;2.69;77.01;99052.31;1773707;80;21815;-38
2022/02/09 05:39:56;;;;;;;7.05;4.87;;;;;;;2.73;76.92;99053.80;1773845;80;21021;-38
2022/02/09 05:42:23;;;;;;;7.80;4.60;;;;;;;2.74;76.84;99046.02;1773917;80;20955;-39
2022/02/09 05:44:50;;;;;;;9.53;4.90;;;;;;;2.74;76.84;99056.17;1774477;80;21041;-39
2022/02/09 05:50:21;;;;;;;8.65;5.17;;;;;;;2.77;76.77;99060.89;1757451;80;20962;-38
2022/02/09 05:58:06;;;;;;;6.92;4.37;;;;;;;2.81;76.67;99073.88;1735002;82;21017;-38
2022/02/09 06:00:23;;;;;;;6.33;4.25;;;;;;;2.83;76.63;99077.03;1733415;82;21128;-39
2022/02/09 06:02:50;;;;;;;7.25;4.42;;;;;;;2.88;76.54;99077.42;1735058;82;20999;-39
2022/02/09 06:05:17;;;;;;;8.33;4.15;;;;;;;2.91;76.40;99080.80;1771468;80;21001;-39
2022/02/09 06:07:44;;;;;;;5.60;4.30;;;;;;;2.93;76.40;99083.41;1773979;80;21053;-39
2022/02/09 06:10:18;;;;;;;9.45;4.55;;;;;;;2.95;76.29;99087.13;1773990;80;21045;-39
2022/02/09 06:12:54;;;;;;;9.05;4.83;;;;;;;2.97;76.16;99089.70;1773406;80;21145;-38
2022/02/09 06:16:00;;;;;;;7.47;4.80;;;;;;;3.00;76.10;99095.76;1770509;80;21903;-39
2022/02/09 06:20:52;;;;;;;8.38;4.65;;;;;;;3.02;76.02;99095.45;1756907;80;20988;-38
2022/02/09 06:23:19;;;;;;;;;;;;;;;3.04;75.93;99099.41;1759502;81;21036;-39
2022/02/09 06:25:46;;;;;;;7.12;4.05;;;;;;;3.09;75.84;99100.34;1757394;80;21095;-39
2022/02/09 06:28:13;;;;;;;6.78;4.10;;;;;;;3.01;75.92;99102.70;1786012;80;20926;-39
2022/02/09 06:30:40;;;;;;;7.78;3.92;;;;;;;3.08;75.87;99106.80;1785868;80;21059;-39
2022/02/09 06:33:06;;;;;;;6.97;3.60;;;;;;;3.13;75.65;99105.30;1786182;80;21010;-38
2022/02/09 06:35:33;;;;;;;6.62;3.77;;;;;;;3.16;75.54;99113.48;1786022;80;21028;-39
2022/02/09 06:38:01;;;;;;;6.45;4.15;;;;;;;3.17;75.35;99112.94;1783466;80;21090;-39
2022/02/09 06:40:30;;;;;;;8.28;3.47;;;;;;;3.21;75.30;99116.55;1756514;81;21044;-39
2022/02/09 06:42:56;;;;;;;7.47;3.75;;;;;;;3.25;75.08;99123.64;1756610;81;21032;-38
2022/02/09 06:45:29;;;;;;;7.85;4.10;;;;;;;3.27;74.98;99126.80;1756527;81;21056;-39
2022/02/09 06:47:54;;;;;;;6.22;3.47;;;;;;;3.30;74.86;99129.38;1756343;81;21492;-38
2022/02/09 06:50:29;;;;;;;5.78;3.85;;;;;;;3.32;74.78;99131.20;1756649;81;21590;-38
2022/02/09 06:53:00;;;;;;;6.83;3.75;;;;;;;3.35;74.70;99131.91;1755554;81;21563;-39
2022/02/09 06:55:21;;;;;;;7.87;3.47;;;;;;;3.38;74.62;99136.09;1777270;80;21052;-39
2022/02/09 07:00:18;;;;;;;6.60;3.87;;;;;;;3.42;74.28;99141.05;1788092;80;21064;-39
2022/02/09 07:02:46;;;;;;;8.70;4.15;;;;;;;3.44;74.27;99144.73;1788246;80;22076;-39
2022/02/09 07:05:14;;;;;;;8.35;3.70;;;;;;;3.47;74.14;99157.52;1787744;80;21534;-39
2022/02/09 07:07:41;;;;;;;6.05;3.45;;;;;;;3.51;74.02;99161.14;1787660;80;21111;-39
2022/02/09 07:10:10;;;;;;;10.00;3.87;;;;;;;3.54;73.80;99163.17;1787459;80;21069;-39
2022/02/09 07:12:41;;;;;;;5.95;2.95;;;;;;;3.55;73.69;99164.75;1788267;80;20985;-39
2022/02/09 07:15:11;;;;;;;6.92;3.37;;;;;;;3.58;73.64;99173.52;1787352;80;21164;-39
2022/02/09 07:17:36;;;;;;;8.40;3.33;;;;;;;3.60;73.53;99179.33;1787492;80;20962;-38
2022/02/09 07:20:10;;;;;;;7.50;3.40;;;;;;;3.60;73.44;99177.98;1775977;80;21101;-39
2022/02/09 07:22:37;;;;;;;7.12;3.33;;;;;;;3.62;73.36;99179.81;1773317;80;20977;-39
2022/02/09 07:25:13;;;;;;;8.68;3.15;;;;;;;3.64;73.33;99180.27;1736973;82;21495;-39
2022/02/09 07:27:53;;;;;;;7.20;3.25;;;;;;;3.68;73.27;99187.91;1736589;82;21794;-39
2022/02/09 07:30:24;;;;;;;8.45;3.20;;;;;;;3.71;72.95;99182.47;1774036;80;21520;-39
2022/02/09 07:33:01;;;;;;;8.60;3.05;;;;;;;3.73;72.84;99186.40;1774355;80;21079;-39
2022/02/09 07:35:29;;;;;;;8.75;3.60;;;;;;;3.74;72.64;99183.95;1773948;80;21040;-39
2022/02/09 07:37:56;;;;;;;10.32;3.58;;;;;;;3.78;72.65;99188.13;1774374;80;21636;-39
2022/02/09 07:40:24;;;;;;;8.63;3.30;;;;;;;3.79;72.53;99193.17;1773797;80;21113;-39
2022/02/09 07:42:58;;;;;;;8.88;3.45;;;;;;;3.84;72.42;99187.65;1774093;80;21582;-39
2022/02/09 07:50:40;;;;;;;9.90;3.20;;;;;;;3.94;71.94;99201.27;1773893;80;21056;-39
2022/02/09 07:53:10;;;;;;;7.62;3.42;;;;;;;3.94;71.92;99199.38;1773787;80;21546;-39
2022/02/09 07:55:36;;;;;;;6.75;3.25;;;;;;;3.97;71.81;99196.59;1773257;80;21626;-39
2022/02/09 07:58:03;;;;;;;8.80;3.27;;;;;;;3.99;71.56;99194.95;1774252;80;21554;-39
2022/02/09 08:00:31;;;;;;;6.33;3.12;;;;;;;4.03;71.47;99202.58;1773785;80;21015;-39
2022/02/09 08:02:57;;;;;;;6.55;3.40;;;;;;;4.03;71.23;99207.40;1774114;80;21101;-39
2022/02/09 08:05:24;;;;;;;7.37;3.45;;;;;;;4.03;71.05;99211.42;1773846;80;21115;-39
2022/02/09 08:07:52;;;;;;;8.43;3.15;;;;;;;4.06;70.89;99214.83;1774386;80;21034;-39
2022/02/09 08:10:28;;;;;;;8.75;3.40;;;;;;;4.09;70.68;99221.43;1774000;80;21559;-39
2022/02/09 08:33:44;;;;;;;7.83;2.90;;;;;;;4.22;69.50;99243.25;1739649;82;20922;-39
2022/02/09 08:36:11;;;;;;;5.85;2.60;;;;;;;4.25;69.29;99260.07;1739841;82;21642;-39
2022/02/09 08:38:42;;;;;;;6.55;3.00;;;;;;;4.27;68.97;99257.84;1739561;82;21068;-39
2022/02/09 08:41:08;;;;;;;5.72;2.65;;;;;;;4.30;68.84;99262.58;1739938;82;21005;-39
2022/02/09 08:43:34;;;;;;;5.83;2.58;;;;;;;4.32;68.56;99271.09;1740140;82;21099;-39
2022/02/09 08:46:00;;;;;;;8.28;2.42;;;;;;;4.36;68.40;99274.70;1740005;82;21013;-39
2022/02/09 08:48:27;;;;;;;5.35;2.70;;;;;;;4.43;67.95;99281.72;1757486;80;21033;-39
2022/02/09 08:50:54;;;;;;;5.78;2.20;;;;;;;4.47;67.83;99286.67;1774147;80;21082;-39
2022/02/09 08:53:20;;;;;;;7.12;2.47;;;;;;;4.51;67.72;99291.63;1760546;80;21593;-39
2022/02/09 08:55:47;;;;;;;6.53;2.22;;;;;;;4.56;67.79;99287.44;1732501;82;21109;-39
2022/02/09 08:58:16;;;;;;;6.90;2.22;;;;;;;4.63;67.47;99295.80;1732601;82;21616;-39
2022/02/09 09:00:42;;;;;;;6.85;2.27;;;;;;;4.68;67.35;99293.48;1732304;82;20932;-39
2022/02/09 09:05:50;;;;;;;6.15;2.50;;;;;;;4.81;67.21;99299.19;1756474;80;21056;-39
2022/02/09 09:08:40;;;;;;;6.30;2.25;;;;;;;4.90;67.23;99297.80;1767896;80;21151;-39
2022/02/09 09:11:20;;;;;;;8.23;2.90;;;;;;;4.96;67.09;99303.23;1758010;80;21000;-39
2022/02/09 10:02:09;;;;;;;7.47;2.42;;;;;;;5.55;63.30;99303.45;1756813;81;21538;-39
2022/02/09 10:33:10;;;;;;;4.28;2.12;;;;;;;6.07;59.81;99299.02;1779537;80;21092;-40
2022/02/09 10:35:43;;;;;;;9.68;2.72;;;;;;;6.15;59.59;99302.77;1765475;81;21890;-40
2022/02/09 10:38:28;;;;;;;6.28;2.15;;;;;;;6.19;59.11;99300.42;1763495;81;21011;-40
2022/02/09 10:40:55;;;;;;;8.20;2.42;;;;;;;6.20;58.46;99306.01;1687868;84;21009;-40
2022/02/09 10:43:30;;;;;;;6.72;2.30;;;;;;;6.23;58.80;99309.41;1688318;85;21097;-40
2022/02/09 10:46:17;;;;;;;9.93;2.90;;;;;;;6.29;57.90;99315.37;1766572;81;21021;-39
2022/02/09 10:48:53;;;;;;;13.47;2.70;;;;;;;6.30;58.15;99312.33;1760481;81;22191;-40
2022/02/09 10:54:18;;;;;;;7.67;2.47;;;;;;;6.30;57.33;99322.30;1767104;81;20945;-39
2022/02/09 10:56:50;;;;;;;4.72;1.98;;;;;;;6.36;57.43;99326.38;1766995;81;21515;-40
2022/02/09 10:59:22;;;;;;;6.50;1.85;;;;;;;6.55;57.45;99334.17;1767350;81;21484;-40
2022/02/09 11:01:49;;;;;;;8.23;2.40;;;;;;;6.82;56.58;99334.69;1766980;81;21118;-40
2022/02/09 11:04:16;;;;;;;6.78;2.20;;;;;;;7.13;55.28;99340.31;1766999;81;21028;-40
2022/02/09 11:06:45;;;;;;;6.42;2.35;;;;;;;7.39;54.94;99344.81;1766856;81;20973;-40
2022/02/09 11:09:15;;;;;;;7.87;2.40;;;;;;;7.61;54.25;99331.96;1766758;81;20993;-40
2022/02/09 11:11:43;;;;;;;7.05;2.22;;;;;;;7.80;53.37;99344.29;1766672;81;21105;-40
2022/02/09 11:14:14;;;;;;;4.37;1.95;;;;;;;7.87;53.20;99340.46;1766889;81;21884;-40
2022/02/09 11:16:46;;;;;;;6.60;1.90;;;;;;;7.96;52.74;99345.16;1766774;81;21045;-40
2022/02/09 11:19:15;;;;;;;6.42;2.27;;;;;;;8.03;52.29;99345.37;1766736;80;21021;-40
2022/02/09 11:21:44;;;;;;;7.40;2.70;;;;;;;8.13;52.38;99345.45;1750050;80;21092;-40
2022/02/09 11:24:17;;;;;;;8.95;2.55;;;;;;;8.21;52.20;99349.35;1736520;82;22060;-40
2022/02/09 11:27:00;;;;;;;7.45;2.92;;;;;;;8.32;51.41;99339.44;1744783;81;21786;-40
2022/02/09 11:35:41;;;;;;;9.15;2.27;;;;;;;8.14;51.86;99353.19;1742736;81;20990;-41
2022/02/09 11:43:39;;;;;;;7.22;2.60;;;;;;;8.26;51.50;99361.83;1743230;82;21486;-40
2022/02/09 12:11:47;;;;;;;6.20;2.50;;;;;;;8.99;48.22;99366.88;1743507;82;21020;-40
2022/02/09 12:16:45;;;;;;;7.95;2.50;;;;;;;8.80;48.97;99375.67;1742738;82;20993;-40
2022/02/09 12:19:13;;;;;;;8.50;2.30;;;;;;;8.75;48.64;99375.92;1742502;82;21033;-41
2022/02/09 12:21:51;;;;;;;6.80;2.30;;;;;;;8.72;48.84;99373.89;1743435;82;21110;-40
2022/02/09 12:24:27;;;;;;;8.53;2.65;;;;;;;8.78;48.62;99380.62;1712398;83;21022;-41
2022/02/09 12:27:01;;;;;;;8.28;2.40;;;;;;;8.82;48.54;99384.20;1710526;83;21522;-40
2022/02/09 12:29:36;;;;;;;7.90;2.50;;;;;;;8.86;48.55;99374.86;1707390;84;20989;-40
2022/02/09 12:32:19;;;;;;;7.37;2.33;;;;;;;9.00;47.88;99384.11;1707813;84;21088;-41
2022/02/09 12:35:06;;;;;;;4.92;2.20;;;;;;;9.13;47.46;99380.19;1688601;84;21824;-41
2022/02/09 12:37:35;;;;;;;5.33;2.10;;;;;;;9.22;46.97;99373.24;1707558;84;21015;-41
2022/02/09 12:40:14;;;;;;;5.83;2.40;;;;;;;9.36;46.80;99387.11;1707802;84;21005;-41
2022/02/09 12:42:45;;;;;;;6.15;2.35;;;;;;;9.53;46.23;99387.33;1707843;83;21023;-41
2022/02/09 12:45:17;;;;;;;6.92;2.37;;;;;;;9.69;45.92;99398.10;1707659;84;20997;-41
2022/02/09 12:47:49;;;;;;;6.75;2.22;;;;;;;9.74;45.58;99404.03;1707764;84;21538;-41
2022/02/09 12:50:19;;;;;;;8.08;2.40;;;;;;;9.76;45.59;99413.17;1707497;84;20969;-41
2022/02/09 12:52:49;;;;;;;6.83;2.72;;;;;;;9.78;45.64;99411.66;1707906;84;21037;-41
2022/02/09 12:55:22;;;;;;;6.67;2.52;;;;;;;9.92;45.46;99415.28;1728834;82;21547;-41
2022/02/09 12:57:55;;;;;;;8.23;2.20;;;;;;;9.96;45.05;99411.52;1742899;82;21057;-41
2022/02/09 13:00:38;;;;;;;4.95;1.92;;;;;;;9.96;44.60;99413.44;1743154;82;21833;-41
2022/02/09 13:03:06;;;;;;;6.83;2.55;;;;;;;10.01;44.75;99425.34;1742900;82;20933;-41
2022/02/09 13:05:42;;;;;;;6.05;2.65;;;;;;;10.07;44.14;99425.27;1742631;82;21507;-41
2022/02/09 13:08:10;;;;;;;4.47;2.33;;;;;;;10.02;44.40;99427.69;1743519;82;21014;-41
2022/02/09 13:10:39;;;;;;;8.73;2.35;;;;;;;9.97;44.70;99437.44;1743179;82;21547;-41
2022/02/09 13:13:12;;;;;;;6.28;2.12;;;;;;;10.05;44.32;99434.33;1743462;82;21817;-41
2022/02/09 13:18:29;;;;;;;10.28;2.37;;;;;;;9.70;45.23;99441.08;1743563;82;21034;-41
2022/02/09 13:21:09;;;;;;;6.80;2.35;;;;;;;9.62;45.60;99439.34;1722687;82;21039;-41
2022/02/09 13:23:29;;;;;;;9.60;2.60;;;;;;;9.54;45.91;99446.49;1740321;82;20921;-41
2022/02/09 13:26:16;;;;;;;9.53;2.65;;;;;;;9.29;46.25;99449.17;1741006;81;21311;-41
2022/02/09 14:19:18;;;;;;;8.50;2.67;;;;;;;7.01;51.45;99510.13;1764520;81;21078;-40
2022/02/09 14:35:47;;;;;;;11.83;2.85;;;;;;;5.62;55.93;99532.84;1747698;82;21118;-40
2022/02/09 14:49:56;;;;;;;8.13;3.30;;;;;;;5.01;58.12;99542.17;1743623;82;21144;-40
2022/02/09 14:54:45;;;;;;;10.60;3.00;;;;;;;4.81;59.06;99537.68;1743419;82;21004;-39
2022/02/09 14:56:31;;;;;;;11.12;3.20;;;;;;;4.70;59.48;99541.78;1719345;82;21033;-40
2022/02/09 14:58:57;;;;;;;9.70;3.25;;;;;;;4.63;59.74;99540.14;1742052;82;21032;-40
2022/02/09 15:01:29;;;;;;;9.03;3.30;;;;;;;4.57;60.01;99544.63;1742064;82;21137;-40
2022/02/09 15:06:45;;;;;;;13.83;3.50;;;;;;;4.48;60.58;99553.22;1756078;81;21610;-40
2022/02/09 15:09:04;;;;;;;8.58;3.05;;;;;;;4.43;60.69;99550.14;1755931;81;20997;-39
2022/02/09 15:11:51;;;;;;;9.03;3.00;;;;;;;4.40;60.93;99562.86;1757600;81;21512;-39
2022/02/09 15:16:35;;;;;;;16.32;4.37;;;;;;;4.32;61.45;99575.14;1758722;81;21049;-40
2022/02/09 15:19:18;;;;;;;13.35;4.22;;;;;;;4.27;61.59;99577.17;1758040;81;20989;-40
2022/02/09 15:24:30;;;;;;;12.65;3.47;;;;;;;4.22;61.84;99582.69;1743399;82;21000;-40
2022/02/09 15:26:54;;;;;;;9.83;3.35;;;;;;;4.18;61.85;99581.19;1742633;82;21057;-39
2022/02/09 15:29:21;;;;;;;15.35;4.72;;;;;;;4.20;61.81;99590.27;1743204;81;21073;-39
2022/02/09 15:31:53;;;;;;;9.58;4.10;;;;;;;4.19;61.81;99587.34;1743105;81;21293;-39
2022/02/09 15:34:24;;;;;;;16.62;4.40;;;;;;;4.19;61.73;99594.05;1743345;81;21500;-39
2022/02/09 15:39:19;;;;;;;15.00;4.50;;;;;;;4.21;61.73;99592.62;1756776;81;21137;-40
2022/02/09 16:11:24;;;;;;;10.35;3.65;;;;;;;3.99;60.65;99636.98;1772318;81;20961;-39
2022/02/09 16:24:29;;;;;;;12.28;3.50;;;;;;;3.95;60.03;99640.05;1751685;81;21079;-39
2022/02/09 16:46:19;;;;;;;7.75;3.20;;;;;;;3.92;59.95;99666.15;1713488;83;21110;-39
2022/02/09 16:49:14;;;;;;;10.75;2.85;;;;;;;3.92;59.92;99662.89;1713531;83;22072;-39
2022/02/09 16:51:20;;;;;;;9.88;2.95;;;;;;;3.91;59.83;99671.27;1704630;83;21002;-40
2022/02/09 16:56:52;;;;;;;10.60;3.02;;;;;;;3.91;59.93;99680.11;1713406;83;21005;-39
2022/02/09 17:18:48;;;;;;;11.85;3.17;;;;;;;3.90;59.81;99679.06;1727573;81;21026;-39
2022/02/09 17:20:56;;;;;;;10.32;3.17;;;;;;;3.88;59.87;99686.06;1748051;81;21467;-39
2022/02/09 17:23:23;;;;;;;8.60;3.20;;;;;;;3.88;59.65;99694.11;1741509;82;21037;-39
2022/02/09 17:25:50;;;;;;;8.40;3.27;;;;;;;3.85;59.70;99689.37;1741524;82;21175;-40
2022/02/09 17:28:17;;;;;;;10.45;3.45;;;;;;;3.88;59.69;99697.34;1743086;82;21024;-39
2022/02/09 17:33:44;;;;;;;10.68;3.67;;;;;;;3.87;59.57;99687.16;1743163;82;21084;-39
2022/02/09 17:36:19;;;;;;;8.10;3.35;;;;;;;3.85;59.53;99681.33;1731956;82;21603;-39
2022/02/09 17:38:50;;;;;;;9.00;3.22;;;;;;;3.85;59.55;99688.03;1716420;83;21495;-40
2022/02/09 17:57:46;;;;;;;9.70;3.40;;;;;;;3.76;59.31;99673.78;1718001;83;21057;-39
2022/02/09 18:00:14;;;;;;;9.00;3.55;;;;;;;3.72;59.40;99673.36;1716493;83;21038;-39
2022/02/09 18:02:36;;;;;;;11.45;3.58;;;;;;;3.68;59.45;99667.80;1716909;83;21527;-39
2022/02/09 18:05:09;;;;;;;8.75;3.55;;;;;;;3.66;59.56;99671.89;1716849;83;21182;-39
2022/02/09 18:07:36;;;;;;;;;;;;;;;3.64;59.61;99674.08;1715331;83;20986;-39
2022/02/09 18:10:15;;;;;;;8.68;2.72;;;;;;;3.60;59.63;99673.11;1712968;83;20498;-40
2022/02/09 18:12:56;;;;;;;9.78;3.15;;;;;;;3.48;59.97;99666.98;1712677;83;21032;-40
2022/02/09 18:28:57;;;;;;;12.75;4.83;;;;;;;3.40;59.89;99669.03;1696534;83;21018;-40
2022/02/09 18:31:17;;;;;;;11.43;4.50;;;;;;;3.37;59.88;99673.66;1674743;85;21516;-39
2022/02/09 18:34:57;;;;;;;9.10;4.17;;;;;;;3.33;60.02;99674.03;1677451;85;21061;-39
2022/02/09 18:44:23;;;;;;;11.65;3.90;;;;;;;3.09;60.64;99674.31;1705575;84;21937;-39
2022/02/09 18:47:04;;;;;;;11.57;3.85;;;;;;;3.00;60.91;99668.86;1704197;83;21037;-39
2022/02/09 19:02:41;;;;;;;14.58;6.05;;;;;;;2.64;62.13;99674.73;1724580;82;21519;-39
2022/02/09 19:05:21;;;;;;;13.93;5.90;;;;;;;2.57;62.40;99672.45;1742758;82;21454;-39
2022/02/09 19:08:09;;;;;;;15.28;5.87;;;;;;;2.52;62.59;99674.43;1742351;82;21016;-39
2022/02/09 19:31:44;;;;;;;11.73;4.15;;;;;;;2.10;64.56;99676.31;1743128;82;21025;-39
2022/02/09 19:48:01;;;;;;;10.72;4.40;;;;;;;2.09;65.96;99689.97;1743242;82;21543;-38
2022/02/09 19:50:27;;;;;;;10.63;3.85;;;;;;;2.12;66.06;99688.86;1705704;83;21167;-39
2022/02/09 19:52:53;;;;;;;10.20;4.17;;;;;;;2.14;66.12;99692.02;1724956;82;21566;-38
2022/02/09 19:55:29;;;;;;;10.55;4.08;;;;;;;2.18;66.26;99686.86;1742790;82;21349;-38
2022/02/09 19:57:47;;;;;;;10.43;3.98;;;;;;;2.21;66.27;99680.14;1741504;82;21487;-39
2022/02/09 20:00:18;;;;;;;10.32;4.20;;;;;;;2.24;66.30;99668.84;1743680;82;21025;-38
2022/02/09 20:02:47;;;;;;;10.18;4.60;;;;;;;2.26;66.45;99672.81;1743040;82;21149;-39
2022/02/09 20:05:11;;;;;;;15.30;4.30;;;;;;;2.30;66.47;99678.36;1743033;82;21080;-38
2022/02/09 20:07:38;;;;;;;11.75;4.67;;;;;;;2.32;66.53;99674.86;1743216;82;21283;-38
2022/02/09 20:10:06;;;;;;;11.80;5.15;;;;;;;2.35;66.67;99676.92;1743144;82;21084;-38
2022/02/09 20:12:32;;;;;;;14.60;5.35;;;;;;;2.36;66.68;99675.30;1743282;82;21035;-39
2022/02/09 20:14:59;;;;;;;10.75;4.72;;;;;;;2.38;66.79;99668.30;1743565;81;21829;-39
2022/02/09 20:17:25;;;;;;;14.98;5.55;;;;;;;2.40;67.00;99662.11;1742991;82;20922;-38
2022/02/09 20:19:56;;;;;;;14.65;6.00;;;;;;;2.41;66.99;99661.03;1743519;82;20957;-38
2022/02/09 20:22:21;;;;;;;15.70;6.10;;;;;;;2.41;67.03;99653.80;1742794;82;21283;-38
2022/02/09 20:24:48;;;;;;;15.60;6.60;;;;;;;2.42;67.17;99655.93;1743255;82;21087;-38
2022/02/09 20:27:19;;;;;;;17.95;6.45;;;;;;;2.43;67.15;99649.47;1737497;82;21121;-39
2022/02/09 20:29:44;;;;;;;15.05;6.40;;;;;;;2.44;67.18;99651.05;1743513;82;20965;-38
2022/02/09 20:32:26;;;;;;;14.83;5.95;;;;;;;2.44;67.25;99649.72;1743304;82;21036;-38
2022/02/09 20:34:54;;;;;;;16.35;6.67;;;;;;;2.43;67.34;99640.89;1741800;82;21096;-38
2022/02/09 20:37:17;;;;;;;17.42;7.33;;;;;;;2.43;67.36;99644.11;1745869;82;21039;-38
2022/02/09 20:39:55;;;;;;;15.40;7.78;;;;;;;2.41;67.46;99633.73;1751358;81;21507;-39
2022/02/09 20:42:17;;;;;;;16.00;7.35;;;;;;;2.41;67.57;99640.96;1748904;82;21028;-39
2022/02/09 20:44:51;;;;;;;17.62;7.30;;;;;;;2.40;67.74;99639.38;1745720;82;21035;-38
2022/02/09 20:47:12;;;;;;;16.17;7.22;;;;;;;2.38;67.73;99636.19;1749841;82;20949;-38
2022/02/09 20:49:39;;;;;;;13.32;6.95;;;;;;;2.37;67.77;99635.97;1751468;82;21087;-39
2022/02/09 20:52:06;;;;;;;16.32;7.17;;;;;;;2.37;67.79;99641.31;1751497;82;21173;-39
2022/02/09 20:54:32;;;;;;;15.93;7.00;;;;;;;2.35;67.83;99639.47;1750974;82;21060;-38
2022/02/09 20:56:59;;;;;;;18.25;7.45;;;;;;;2.32;67.92;99644.09;1751122;82;21581;-38
2022/02/09 20:59:27;;;;;;;16.57;7.62;;;;;;;2.28;67.98;99643.87;1751180;82;21032;-38
2022/02/09 21:02:05;;;;;;;14.63;7.17;;;;;;;2.23;68.08;99647.98;1751184;82;21517;-38
2022/02/09 21:04:28;;;;;;;19.98;8.30;;;;;;;2.17;68.16;99633.94;1749954;81;21540;-39
2022/02/09 21:07:05;;;;;;;17.07;8.13;;;;;;;2.14;68.37;99634.52;1751153;82;21024;-38
2022/02/09 21:12:27;;;;;;;17.25;8.00;;;;;;;2.10;68.65;99634.86;1751190;82;21049;-38
2022/02/09 21:25:21;;;;;;;17.87;7.00;;;;;;;2.02;69.31;99641.45;1751265;82;21090;-38
2022/02/09 21:28:09;;;;;;;13.45;6.80;;;;;;;1.99;69.42;99638.81;1746562;82;20993;-38
2022/02/09 21:55:39;;;;;;;16.40;8.40;;;;;;;1.93;71.12;99632.53;1734764;81;21601;-38
2022/02/09 21:58:08;;;;;;;17.57;8.88;;;;;;;1.96;71.14;99632.72;1692599;84;21904;-39
2022/02/09 22:20:10;;;;;;;16.48;7.72;;;;;;;2.16;71.81;99615.50;1723451;83;21047;-39
2022/02/09 22:27:49;;;;;;;18.70;8.05;;;;;;;2.20;72.49;99616.48;1698587;83;21047;-39
2022/02/09 22:49:47;;;;;;;15.88;7.62;;;;;;;2.21;73.53;99607.92;1694472;84;21089;-39
2022/02/09 22:54:43;;;;;;;;;;;;;;;2.19;73.75;99587.61;1666986;82;20988;-39
2022/02/09 22:57:04;;;;;;;15.13;7.00;;;;;;;2.22;73.75;99590.80;1697966;84;20166;-39
2022/02/09 22:59:42;;;;;;;16.48;7.42;;;;;;;2.14;73.96;99585.58;1700149;84;21563;-39
2022/02/09 23:02:09;;;;;;;17.90;8.08;;;;;;;2.20;73.97;99584.39;1717559;83;21056;-39
2022/02/09 23:04:43;;;;;;;;;;;;;;;2.24;73.99;99574.67;1717535;83;21141;-39
2022/02/09 23:20:29;;;;;;;19.25;8.73;;;;;;;2.39;74.69;99559.65;1721213;83;21028;-39
